createdAt,value
2017-11-17T00:00:18.209Z,2.95
2017-11-17T00:01:18.136Z,3.05
2017-11-17T00:03:11.218Z,2.97
2017-11-17T00:04:11.142Z,2.88
2017-11-17T00:06:04.320Z,2.98
2017-11-17T00:07:04.217Z,2.95
2017-11-17T00:08:57.283Z,2.94
2017-11-17T00:09:57.294Z,2.91
2017-11-17T00:11:50.711Z,3.02
2017-11-17T00:12:50.343Z,2.97
2017-11-17T00:14:43.435Z,3.05
2017-11-17T00:15:43.326Z,2.97
2017-11-17T00:17:36.483Z,2.97
2017-11-17T00:18:36.473Z,3.00
2017-11-17T00:20:29.579Z,3.03
2017-11-17T00:21:29.415Z,3.02
2017-11-17T00:23:22.568Z,3.00
2017-11-17T00:24:22.512Z,3.02
2017-11-17T00:26:16.176Z,2.97
2017-11-17T00:27:15.525Z,3.02
2017-11-17T00:29:08.722Z,3.07
2017-11-17T00:30:08.680Z,3.03
2017-11-17T00:32:01.825Z,3.06
2017-11-17T00:33:01.745Z,3.02
2017-11-17T00:34:54.902Z,3.06
2017-11-17T00:35:55.277Z,3.05
2017-11-17T00:37:47.901Z,3.05
2017-11-17T00:38:47.849Z,3.06
2017-11-17T00:40:40.958Z,3.00
2017-11-17T00:41:41.387Z,3.10
2017-11-17T00:43:34.496Z,3.07
2017-11-17T00:44:33.960Z,3.12
2017-11-17T00:46:27.633Z,3.06
2017-11-17T00:47:27.552Z,3.09
2017-11-17T00:49:22.163Z,3.10
2017-11-17T00:50:22.632Z,3.07
2017-11-17T00:52:15.235Z,3.09
2017-11-17T00:53:15.202Z,3.10
2017-11-17T00:55:08.262Z,3.09
2017-11-17T00:56:08.255Z,3.12
2017-11-17T00:58:01.389Z,3.10
2017-11-17T00:59:01.231Z,3.10
2017-11-17T01:00:54.405Z,3.20
2017-11-17T01:01:54.372Z,3.12
2017-11-17T01:03:48.001Z,3.15
2017-11-17T01:04:47.345Z,3.12
2017-11-17T01:06:40.516Z,3.18
2017-11-17T01:07:40.437Z,3.12
2017-11-17T01:09:33.569Z,3.16
2017-11-17T01:10:33.525Z,3.24
2017-11-17T01:12:26.591Z,3.21
2017-11-17T01:13:26.386Z,3.23
2017-11-17T01:15:19.854Z,3.24
2017-11-17T01:16:19.713Z,3.18
2017-11-17T01:18:12.784Z,3.27
2017-11-17T01:19:13.289Z,3.27
2017-11-17T01:21:05.884Z,3.16
2017-11-17T01:22:05.821Z,3.23
2017-11-17T01:23:58.876Z,3.28
2017-11-17T01:24:58.894Z,3.24
2017-11-17T01:26:52.042Z,3.21
2017-11-17T01:27:51.973Z,3.28
2017-11-17T01:29:45.068Z,3.30
2017-11-17T01:30:44.961Z,3.30
2017-11-17T01:32:38.167Z,3.25
2017-11-17T01:33:38.065Z,3.24
2017-11-17T01:35:32.731Z,3.34
2017-11-17T01:36:33.039Z,3.33
2017-11-17T01:38:26.106Z,3.33
2017-11-17T01:39:25.669Z,3.30
2017-11-17T01:41:19.390Z,3.33
2017-11-17T01:42:18.696Z,3.31
2017-11-17T01:44:11.899Z,3.31
2017-11-17T01:45:11.847Z,3.30
2017-11-17T01:47:05.674Z,3.46
2017-11-17T01:48:04.875Z,3.31
2017-11-17T01:49:58.002Z,3.34
2017-11-17T01:50:57.858Z,3.39
2017-11-17T01:52:51.094Z,3.49
2017-11-17T01:53:51.030Z,3.52
2017-11-17T01:55:44.138Z,3.46
2017-11-17T01:56:44.019Z,3.50
2017-11-17T01:58:37.152Z,3.39
2017-11-17T01:59:37.151Z,3.33
2017-11-17T02:01:30.191Z,3.31
2017-11-17T02:03:43.306Z,3.28
2017-11-17T02:04:43.230Z,3.36
2017-11-17T02:06:36.920Z,3.40
2017-11-17T02:07:36.209Z,3.33
2017-11-17T02:09:29.894Z,3.34
2017-11-17T02:10:29.947Z,3.33
2017-11-17T02:12:23.025Z,3.30
2017-11-17T02:13:22.989Z,3.28
2017-11-17T02:15:16.068Z,3.31
2017-11-17T02:16:15.952Z,3.36
2017-11-17T02:18:09.141Z,3.36
2017-11-17T02:19:09.041Z,3.36
2017-11-17T02:21:02.191Z,3.39
2017-11-17T02:22:02.127Z,3.44
2017-11-17T02:23:55.328Z,3.52
2017-11-17T02:24:55.181Z,3.46
2017-11-17T02:26:48.293Z,3.44
2017-11-17T02:27:48.199Z,3.44
2017-11-17T02:29:41.417Z,3.44
2017-11-17T02:30:41.845Z,3.53
2017-11-17T02:32:34.442Z,3.47
2017-11-17T02:33:34.286Z,3.46
2017-11-17T02:35:27.952Z,3.54
2017-11-17T02:36:27.433Z,3.46
2017-11-17T02:38:20.521Z,3.46
2017-11-17T02:39:20.493Z,3.44
2017-11-17T02:41:13.700Z,3.47
2017-11-17T02:42:13.579Z,3.50
2017-11-17T02:44:06.665Z,3.60
2017-11-17T02:45:06.524Z,3.57
2017-11-17T02:46:59.779Z,3.57
2017-11-17T02:48:00.250Z,3.54
2017-11-17T02:49:53.046Z,3.58
2017-11-17T02:50:52.736Z,3.54
2017-11-17T02:52:46.363Z,3.53
2017-11-17T02:53:46.517Z,3.54
2017-11-17T02:55:40.978Z,3.65
2017-11-17T02:56:40.832Z,3.70
2017-11-17T02:58:33.990Z,3.61
2017-11-17T02:59:33.967Z,3.68
2017-11-17T03:01:27.116Z,3.61
2017-11-17T03:02:27.018Z,3.61
2017-11-17T03:04:20.121Z,3.68
2017-11-17T03:05:20.073Z,3.68
2017-11-17T03:07:13.707Z,3.68
2017-11-17T03:08:13.126Z,3.67
2017-11-17T03:10:07.290Z,3.75
2017-11-17T03:11:06.159Z,3.62
2017-11-17T03:12:59.797Z,3.71
2017-11-17T03:13:59.270Z,3.72
2017-11-17T03:15:52.379Z,3.75
2017-11-17T03:16:52.544Z,3.71
2017-11-17T03:18:45.320Z,3.71
2017-11-17T03:19:45.276Z,3.71
2017-11-17T03:21:38.956Z,3.68
2017-11-17T03:22:38.271Z,3.67
2017-11-17T03:24:32.000Z,3.67
2017-11-17T03:25:31.942Z,3.68
2017-11-17T03:27:25.000Z,3.76
2017-11-17T03:28:24.923Z,3.72
2017-11-17T03:30:18.142Z,3.75
2017-11-17T03:31:17.928Z,3.70
2017-11-17T03:33:11.225Z,3.72
2017-11-17T03:34:11.044Z,3.79
2017-11-17T03:36:04.208Z,3.71
2017-11-17T03:37:04.053Z,3.68
2017-11-17T03:38:57.384Z,3.71
2017-11-17T03:39:57.122Z,3.76
2017-11-17T03:41:50.243Z,3.82
2017-11-17T03:42:50.100Z,3.80
2017-11-17T03:44:43.932Z,3.83
2017-11-17T03:45:43.132Z,3.85
2017-11-17T03:47:36.378Z,3.82
2017-11-17T03:48:36.514Z,3.71
2017-11-17T03:50:29.505Z,3.82
2017-11-17T03:51:29.400Z,3.82
2017-11-17T03:53:22.526Z,3.83
2017-11-17T03:54:22.337Z,3.83
2017-11-17T03:56:15.683Z,3.82
2017-11-17T03:57:15.517Z,3.85
2017-11-17T03:59:08.656Z,3.78
2017-11-17T04:00:08.465Z,3.83
2017-11-17T04:02:01.761Z,3.86
2017-11-17T04:03:01.483Z,3.85
2017-11-17T04:04:55.358Z,3.82
2017-11-17T04:05:54.580Z,3.76
2017-11-17T04:07:47.892Z,3.90
2017-11-17T04:08:47.718Z,3.88
2017-11-17T04:10:40.905Z,3.89
2017-11-17T04:11:41.007Z,3.92
2017-11-17T04:13:33.988Z,4.06
2017-11-17T04:14:33.713Z,4.01
2017-11-17T04:16:27.991Z,4.04
2017-11-17T04:17:27.428Z,3.97
2017-11-17T04:19:20.738Z,4.01
2017-11-17T04:20:20.441Z,4.04
2017-11-17T04:22:13.749Z,3.96
2017-11-17T04:23:13.497Z,3.94
2017-11-17T04:25:07.045Z,4.08
2017-11-17T04:26:06.594Z,4.04
2017-11-17T04:27:59.776Z,3.98
2017-11-17T04:28:59.591Z,3.98
2017-11-17T04:30:53.235Z,3.97
2017-11-17T04:31:53.002Z,4.03
2017-11-17T04:33:46.111Z,4.06
2017-11-17T04:34:46.006Z,4.00
2017-11-17T04:36:39.287Z,4.04
2017-11-17T04:37:39.110Z,4.12
2017-11-17T04:39:32.711Z,4.07
2017-11-17T04:40:32.569Z,4.12
2017-11-17T04:43:28.614Z,4.12
2017-11-17T04:45:23.327Z,4.14
2017-11-17T04:46:23.057Z,4.14
2017-11-17T04:48:16.943Z,4.15
2017-11-17T04:49:16.481Z,4.19
2017-11-17T04:51:09.414Z,4.12
2017-11-17T04:52:09.325Z,4.21
2017-11-17T04:54:02.538Z,4.12
2017-11-17T04:55:02.440Z,4.16
2017-11-17T04:56:55.551Z,4.18
2017-11-17T04:57:55.460Z,4.18
2017-11-17T04:59:48.637Z,4.18
2017-11-17T05:00:48.554Z,4.24
2017-11-17T05:02:41.596Z,4.16
2017-11-17T05:03:41.541Z,4.16
2017-11-17T05:05:34.720Z,4.32
2017-11-17T05:06:34.523Z,4.22
2017-11-17T05:08:27.768Z,4.32
2017-11-17T05:09:27.704Z,4.26
2017-11-17T05:11:20.911Z,4.33
2017-11-17T05:12:20.596Z,4.25
2017-11-17T05:14:13.820Z,4.26
2017-11-17T05:15:13.688Z,4.29
2017-11-17T05:17:06.982Z,4.28
2017-11-17T05:18:06.684Z,4.33
2017-11-17T05:19:59.998Z,4.36
2017-11-17T05:20:59.857Z,4.33
2017-11-17T05:21:59.911Z,4.34
2017-11-17T05:22:59.872Z,4.39
2017-11-17T05:23:59.839Z,4.37
2017-11-17T05:24:59.816Z,4.43
2017-11-17T05:25:59.726Z,4.43
2017-11-17T05:26:59.631Z,4.37
2017-11-17T05:27:59.635Z,4.44
2017-11-17T05:28:59.541Z,4.39
2017-11-17T05:29:59.474Z,4.37
2017-11-17T05:30:59.400Z,4.43
2017-11-17T05:31:59.501Z,4.44
2017-11-17T05:32:59.244Z,4.44
2017-11-17T05:33:59.398Z,4.40
2017-11-17T05:34:59.543Z,4.37
2017-11-17T05:35:59.245Z,4.39
2017-11-17T05:36:59.266Z,4.44
2017-11-17T05:37:59.172Z,4.42
2017-11-17T05:38:59.223Z,4.39
2017-11-17T05:39:59.061Z,4.39
2017-11-17T05:40:59.102Z,4.50
2017-11-17T05:41:59.022Z,4.47
2017-11-17T05:42:58.922Z,4.42
2017-11-17T05:43:58.886Z,4.37
2017-11-17T05:44:58.778Z,4.51
2017-11-17T05:45:59.353Z,4.44
2017-11-17T05:46:58.813Z,4.43
2017-11-17T05:47:58.771Z,4.47
2017-11-17T05:48:58.683Z,4.47
2017-11-17T05:49:58.940Z,4.43
2017-11-17T05:50:59.100Z,4.57
2017-11-17T05:51:58.530Z,4.51
2017-11-17T05:52:58.883Z,4.50
2017-11-17T05:53:59.394Z,4.47
2017-11-17T05:54:58.406Z,4.55
2017-11-17T05:55:58.390Z,4.54
2017-11-17T05:56:58.257Z,4.52
2017-11-17T05:57:58.280Z,4.50
2017-11-17T05:58:58.229Z,4.57
2017-11-17T05:59:58.423Z,4.52
2017-11-17T06:00:58.153Z,4.55
2017-11-17T06:01:58.129Z,4.47
2017-11-17T06:02:58.072Z,4.58
2017-11-17T06:03:58.072Z,4.62
2017-11-17T06:04:57.850Z,4.67
2017-11-17T06:05:57.928Z,4.67
2017-11-17T06:06:57.919Z,4.62
2017-11-17T06:07:57.836Z,4.65
2017-11-17T06:08:57.806Z,4.64
2017-11-17T06:09:57.771Z,4.70
2017-11-17T06:10:58.171Z,4.64
2017-11-17T06:11:58.185Z,4.64
2017-11-17T06:12:57.636Z,4.69
2017-11-17T06:13:57.736Z,4.65
2017-11-17T06:14:57.589Z,4.65
2017-11-17T06:15:57.345Z,4.67
2017-11-17T06:16:57.680Z,4.62
2017-11-17T06:17:57.362Z,4.70
2017-11-17T06:18:57.406Z,4.73
2017-11-17T06:19:57.266Z,4.72
2017-11-17T06:20:57.309Z,4.62
2017-11-17T06:21:57.714Z,4.67
2017-11-17T06:22:57.326Z,4.62
2017-11-17T06:23:57.734Z,4.76
2017-11-17T06:24:57.134Z,4.69
2017-11-17T06:25:57.124Z,4.69
2017-11-17T06:26:56.871Z,4.73
2017-11-17T06:27:56.824Z,4.72
2017-11-17T06:28:56.792Z,4.77
2017-11-17T06:29:56.879Z,4.75
2017-11-17T06:30:56.838Z,4.72
2017-11-17T06:31:56.779Z,4.76
2017-11-17T06:32:56.736Z,4.70
2017-11-17T06:33:56.676Z,4.83
2017-11-17T06:34:56.702Z,4.80
2017-11-17T06:35:56.539Z,4.84
2017-11-17T06:36:56.514Z,4.80
2017-11-17T06:37:56.557Z,4.88
2017-11-17T06:38:56.538Z,4.80
2017-11-17T06:39:56.424Z,4.79
2017-11-17T06:40:56.300Z,4.77
2017-11-17T06:41:56.406Z,4.77
2017-11-17T06:42:56.679Z,4.77
2017-11-17T06:43:56.268Z,4.83
2017-11-17T06:44:56.278Z,4.89
2017-11-17T06:45:56.214Z,4.89
2017-11-17T06:46:56.149Z,4.89
2017-11-17T06:47:56.087Z,4.76
2017-11-17T06:48:56.070Z,4.88
2017-11-17T06:49:55.973Z,4.76
2017-11-17T06:50:55.980Z,4.89
2017-11-17T06:51:55.685Z,4.89
2017-11-17T06:52:55.907Z,4.89
2017-11-17T06:53:55.864Z,4.95
2017-11-17T06:54:56.277Z,4.86
2017-11-17T06:55:55.679Z,4.95
2017-11-17T06:56:55.721Z,4.94
2017-11-17T06:57:55.933Z,4.92
2017-11-17T06:58:55.595Z,4.96
2017-11-17T06:59:55.538Z,4.95
2017-11-17T07:00:55.413Z,4.92
2017-11-17T07:01:55.430Z,5.01
2017-11-17T07:02:55.467Z,4.99
2017-11-17T07:03:55.238Z,4.92
2017-11-17T07:04:55.365Z,4.92
2017-11-17T07:05:55.299Z,4.96
2017-11-17T07:06:55.276Z,4.98
2017-11-17T07:07:55.270Z,5.04
2017-11-17T07:08:55.202Z,5.01
2017-11-17T07:09:55.186Z,5.02
2017-11-17T07:10:55.086Z,5.05
2017-11-17T07:11:55.054Z,5.07
2017-11-17T07:12:54.944Z,5.04
2017-11-17T07:13:54.936Z,4.98
2017-11-17T07:14:54.951Z,5.04
2017-11-17T07:15:54.820Z,4.99
2017-11-17T07:16:54.790Z,5.02
2017-11-17T07:17:54.636Z,5.04
2017-11-17T07:18:54.744Z,5.04
2017-11-17T07:19:54.641Z,5.04
2017-11-17T07:20:55.084Z,5.07
2017-11-17T07:21:54.559Z,5.05
2017-11-17T07:22:54.572Z,5.17
2017-11-17T07:23:54.504Z,5.09
2017-11-17T07:24:54.397Z,5.10
2017-11-17T07:25:54.436Z,5.07
2017-11-17T07:26:54.332Z,5.05
2017-11-17T07:27:54.311Z,5.16
2017-11-17T07:28:54.257Z,5.14
2017-11-17T07:29:54.242Z,5.10
2017-11-17T07:30:54.712Z,5.19
2017-11-17T07:31:54.056Z,5.16
2017-11-17T07:32:54.143Z,5.10
2017-11-17T07:33:54.087Z,5.28
2017-11-17T07:34:54.006Z,5.14
2017-11-17T07:35:53.683Z,5.27
2017-11-17T07:36:53.923Z,5.23
2017-11-17T07:37:53.948Z,5.19
2017-11-17T07:38:53.814Z,5.27
2017-11-17T07:39:53.797Z,5.30
2017-11-17T07:40:53.726Z,5.30
2017-11-17T07:41:53.743Z,5.28
2017-11-17T07:42:53.618Z,5.28
2017-11-17T07:43:53.673Z,5.22
2017-11-17T07:44:54.057Z,5.31
2017-11-17T07:45:53.508Z,5.22
2017-11-17T07:46:53.460Z,5.31
2017-11-17T07:47:53.691Z,5.28
2017-11-17T07:48:53.494Z,5.30
2017-11-17T07:49:53.273Z,5.43
2017-11-17T07:50:53.293Z,5.40
2017-11-17T07:51:53.272Z,5.48
2017-11-17T07:52:53.164Z,5.40
2017-11-17T07:53:53.130Z,5.48
2017-11-17T07:54:53.208Z,5.46
2017-11-17T07:55:53.556Z,5.43
2017-11-17T07:56:53.082Z,5.48
2017-11-17T07:57:52.715Z,5.56
2017-11-17T07:58:52.990Z,5.53
2017-11-17T07:59:52.919Z,5.53
2017-11-17T08:00:52.502Z,5.48
2017-11-17T08:01:52.409Z,5.48
2017-11-17T08:02:52.386Z,5.43
2017-11-17T08:03:52.331Z,5.48
2017-11-17T08:04:52.320Z,5.46
2017-11-17T08:05:52.247Z,5.48
2017-11-17T08:06:52.200Z,5.46
2017-11-17T08:07:52.150Z,5.52
2017-11-17T08:08:52.125Z,5.46
2017-11-17T08:09:52.094Z,5.49
2017-11-17T08:10:52.028Z,5.52
2017-11-17T08:11:51.986Z,5.66
2017-11-17T08:12:51.969Z,5.66
2017-11-17T08:13:51.891Z,5.56
2017-11-17T08:14:51.863Z,5.53
2017-11-17T08:15:51.810Z,5.67
2017-11-17T08:16:51.776Z,5.66
2017-11-17T08:17:51.737Z,5.68
2017-11-17T08:18:51.685Z,5.67
2017-11-17T08:19:51.647Z,5.68
2017-11-17T08:20:51.610Z,5.71
2017-11-17T08:21:51.585Z,5.73
2017-11-17T08:22:51.528Z,5.75
2017-11-17T08:23:51.481Z,5.71
2017-11-17T08:24:51.445Z,5.75
2017-11-17T08:25:51.385Z,5.67
2017-11-17T08:26:51.365Z,5.68
2017-11-17T08:27:51.306Z,5.71
2017-11-17T08:28:51.278Z,5.71
2017-11-17T08:29:51.213Z,5.67
2017-11-17T08:30:51.173Z,5.71
2017-11-17T08:31:51.136Z,5.73
2017-11-17T08:32:51.069Z,5.66
2017-11-17T08:33:51.050Z,5.71
2017-11-17T08:34:50.987Z,5.74
2017-11-17T08:35:50.964Z,5.68
2017-11-17T08:36:50.894Z,5.70
2017-11-17T08:37:50.860Z,5.68
2017-11-17T08:38:50.810Z,5.75
2017-11-17T08:39:50.819Z,5.68
2017-11-17T08:40:50.735Z,5.71
2017-11-17T08:41:50.729Z,5.63
2017-11-17T08:42:50.642Z,5.68
2017-11-17T08:43:50.623Z,5.73
2017-11-17T08:44:50.564Z,5.77
2017-11-17T08:45:50.517Z,5.81
2017-11-17T08:46:50.468Z,5.73
2017-11-17T08:47:50.436Z,5.82
2017-11-17T08:48:50.403Z,5.88
2017-11-17T08:49:50.340Z,5.71
2017-11-17T08:50:50.304Z,5.82
2017-11-17T08:51:50.272Z,5.82
2017-11-17T08:52:51.861Z,5.86
2017-11-17T08:53:50.202Z,5.88
2017-11-17T08:54:50.117Z,5.77
2017-11-17T08:55:50.087Z,5.83
2017-11-17T08:56:50.027Z,5.88
2017-11-17T08:57:50.047Z,5.95
2017-11-17T08:58:49.937Z,5.95
2017-11-17T08:59:49.902Z,6.00
2017-11-17T09:00:49.850Z,6.00
2017-11-17T09:01:49.827Z,6.06
2017-11-17T09:02:49.771Z,6.04
2017-11-17T09:03:49.823Z,6.07
2017-11-17T09:04:49.693Z,6.07
2017-11-17T09:05:49.660Z,6.11
2017-11-17T09:06:49.641Z,6.14
2017-11-17T09:07:49.581Z,6.13
2017-11-17T09:08:49.522Z,6.21
2017-11-17T09:09:49.493Z,6.29
2017-11-17T09:10:49.483Z,6.30
2017-11-17T09:11:49.385Z,6.43
2017-11-17T09:12:49.359Z,6.33
2017-11-17T09:13:49.329Z,6.40
2017-11-17T09:14:49.278Z,6.32
2017-11-17T09:15:49.235Z,6.40
2017-11-17T09:16:49.190Z,6.35
2017-11-17T09:17:49.127Z,6.40
2017-11-17T09:18:49.104Z,6.40
2017-11-17T09:19:49.049Z,6.33
2017-11-17T09:20:49.022Z,6.38
2017-11-17T09:21:48.976Z,6.36
2017-11-17T09:22:48.915Z,6.40
2017-11-17T09:23:48.865Z,6.43
2017-11-17T09:24:48.826Z,6.36
2017-11-17T09:25:48.787Z,6.38
2017-11-17T09:26:48.848Z,6.44
2017-11-17T09:27:48.714Z,6.51
2017-11-17T09:28:48.701Z,6.50
2017-11-17T09:29:48.625Z,6.56
2017-11-17T09:30:48.608Z,6.41
2017-11-17T09:31:48.527Z,6.53
2017-11-17T09:32:48.588Z,6.40
2017-11-17T09:33:48.439Z,6.47
2017-11-17T09:34:48.412Z,6.41
2017-11-17T09:35:48.374Z,6.61
2017-11-17T09:36:49.316Z,6.50
2017-11-17T09:37:48.421Z,6.43
2017-11-17T09:38:48.238Z,6.54
2017-11-17T09:39:48.210Z,6.50
2017-11-17T09:40:48.153Z,6.51
2017-11-17T09:41:48.121Z,6.53
2017-11-17T09:42:48.079Z,6.51
2017-11-17T09:43:48.048Z,6.51
2017-11-17T09:44:47.981Z,6.62
2017-11-17T09:45:47.945Z,6.58
2017-11-17T09:46:47.886Z,6.59
2017-11-17T09:47:47.863Z,6.63
2017-11-17T09:48:47.799Z,6.66
2017-11-17T09:49:47.781Z,6.71
2017-11-17T09:50:47.723Z,6.68
2017-11-17T09:51:47.688Z,6.68
2017-11-17T09:52:47.632Z,6.71
2017-11-17T09:53:47.611Z,6.66
2017-11-17T09:54:47.567Z,6.73
2017-11-17T09:55:47.512Z,6.69
2017-11-17T09:56:47.467Z,6.76
2017-11-17T09:57:47.435Z,6.73
2017-11-17T09:58:47.378Z,6.71
2017-11-17T09:59:47.344Z,6.73
2017-11-17T10:00:47.287Z,6.71
2017-11-17T10:01:47.257Z,6.73
2017-11-17T10:02:47.241Z,6.87
2017-11-17T10:03:47.165Z,6.71
2017-11-17T10:04:47.135Z,6.72
2017-11-17T10:05:47.088Z,6.84
2017-11-17T10:06:47.028Z,6.83
2017-11-17T10:07:46.997Z,6.91
2017-11-17T10:08:46.978Z,6.90
2017-11-17T10:09:47.017Z,6.91
2017-11-17T10:10:46.883Z,6.87
2017-11-17T10:11:46.825Z,6.90
2017-11-17T10:12:46.796Z,6.98
2017-11-17T10:13:46.748Z,7.02
2017-11-17T10:14:46.695Z,6.98
2017-11-17T10:15:46.646Z,7.04
2017-11-17T10:16:46.609Z,7.02
2017-11-17T10:17:46.575Z,7.04
2017-11-17T10:18:46.529Z,7.02
2017-11-17T10:19:46.484Z,6.98
2017-11-17T10:20:46.444Z,6.86
2017-11-17T10:21:46.405Z,6.97
2017-11-17T10:22:46.373Z,6.98
2017-11-17T10:23:46.332Z,6.99
2017-11-17T10:24:46.295Z,6.94
2017-11-17T10:25:46.232Z,7.01
2017-11-17T10:26:46.188Z,7.01
2017-11-17T10:27:46.196Z,7.02
2017-11-17T10:28:46.106Z,7.15
2017-11-17T10:29:46.064Z,6.98
2017-11-17T10:30:46.017Z,7.02
2017-11-17T10:31:45.975Z,7.02
2017-11-17T10:32:45.942Z,7.01
2017-11-17T10:33:45.895Z,7.04
2017-11-17T10:34:45.948Z,6.98
2017-11-17T10:35:45.819Z,7.09
2017-11-17T10:36:45.764Z,7.04
2017-11-17T10:37:45.775Z,7.15
2017-11-17T10:38:45.683Z,7.13
2017-11-17T10:39:45.644Z,7.05
2017-11-17T10:40:45.633Z,7.12
2017-11-17T10:41:45.566Z,7.02
2017-11-17T10:42:45.530Z,6.97
2017-11-17T10:43:45.481Z,6.98
2017-11-17T10:44:45.436Z,6.86
2017-11-17T10:45:45.391Z,7.01
2017-11-17T10:46:45.372Z,7.01
2017-11-17T10:47:45.307Z,7.02
2017-11-17T10:48:45.269Z,7.01
2017-11-17T10:49:45.225Z,6.81
2017-11-17T10:50:45.183Z,6.91
2017-11-17T10:51:45.152Z,6.86
2017-11-17T10:52:45.112Z,6.97
2017-11-17T10:53:45.052Z,6.99
2017-11-17T10:54:45.023Z,7.07
2017-11-17T10:55:44.974Z,6.99
2017-11-17T10:56:44.934Z,6.99
2017-11-17T10:57:44.908Z,6.98
2017-11-17T10:58:44.852Z,7.01
2017-11-17T10:59:44.795Z,7.02
2017-11-17T11:00:44.765Z,7.02
2017-11-17T11:01:44.712Z,7.04
2017-11-17T11:02:44.691Z,6.97
2017-11-17T11:03:44.637Z,7.04
2017-11-17T11:04:44.599Z,7.16
2017-11-17T11:05:44.567Z,6.99
2017-11-17T11:06:44.528Z,7.04
2017-11-17T11:07:44.461Z,7.13
2017-11-17T11:08:44.436Z,7.05
2017-11-17T11:09:44.393Z,7.13
2017-11-17T11:10:44.484Z,7.13
2017-11-17T11:11:44.304Z,7.08
2017-11-17T11:12:44.272Z,7.12
2017-11-17T11:13:44.235Z,7.23
2017-11-17T11:14:44.177Z,7.15
2017-11-17T11:15:44.160Z,7.19
2017-11-17T11:16:44.090Z,7.15
2017-11-17T11:17:44.072Z,7.17
2017-11-17T11:18:44.029Z,7.13
2017-11-17T11:19:43.971Z,7.12
2017-11-17T11:20:43.930Z,7.15
2017-11-17T11:21:43.925Z,7.19
2017-11-17T11:22:43.846Z,7.26
2017-11-17T11:23:43.808Z,7.20
2017-11-17T11:24:43.780Z,7.16
2017-11-17T11:25:43.751Z,7.19
2017-11-17T11:26:43.680Z,7.27
2017-11-17T11:27:43.634Z,7.23
2017-11-17T11:28:43.615Z,7.17
2017-11-17T11:29:43.569Z,7.23
2017-11-17T11:30:43.539Z,7.17
2017-11-17T11:31:43.463Z,7.23
2017-11-17T11:32:43.458Z,7.34
2017-11-17T11:33:43.406Z,7.32
2017-11-17T11:34:43.373Z,7.49
2017-11-17T11:35:43.303Z,7.49
2017-11-17T11:36:43.269Z,7.49
2017-11-17T11:37:43.220Z,7.49
2017-11-17T11:38:43.181Z,7.62
2017-11-17T11:39:43.151Z,7.72
2017-11-17T11:40:43.101Z,7.78
2017-11-17T11:41:43.049Z,7.96
2017-11-17T11:42:43.023Z,7.85
2017-11-17T11:43:42.993Z,7.69
2017-11-17T11:44:42.927Z,7.55
2017-11-17T11:45:42.912Z,7.56
2017-11-17T11:46:42.895Z,7.56
2017-11-17T11:47:42.806Z,7.45
2017-11-17T11:48:42.770Z,7.45
2017-11-17T11:49:42.732Z,7.42
2017-11-17T11:50:42.683Z,7.50
2017-11-17T11:51:42.644Z,7.58
2017-11-17T11:52:42.665Z,7.60
2017-11-17T11:53:42.572Z,7.71
2017-11-17T11:54:42.542Z,7.74
2017-11-17T11:55:42.484Z,7.74
2017-11-17T11:56:42.424Z,7.63
2017-11-17T11:57:42.415Z,7.55
2017-11-17T11:58:42.359Z,7.53
2017-11-17T11:59:42.315Z,7.31
2017-11-17T12:00:42.271Z,7.31
2017-11-17T12:01:42.236Z,7.23
2017-11-17T12:02:42.190Z,7.35
2017-11-17T12:03:42.146Z,7.31
2017-11-17T12:04:42.108Z,7.27
2017-11-17T12:05:42.062Z,7.35
2017-11-17T12:06:42.021Z,7.27
2017-11-17T12:07:41.972Z,7.35
2017-11-17T12:08:41.932Z,7.41
2017-11-17T12:09:41.896Z,7.29
2017-11-17T12:10:41.861Z,7.35
2017-11-17T12:11:41.813Z,7.41
2017-11-17T12:12:41.795Z,7.42
2017-11-17T12:13:41.717Z,7.56
2017-11-17T12:14:41.682Z,7.56
2017-11-17T12:15:41.642Z,7.62
2017-11-17T12:16:41.625Z,7.72
2017-11-17T12:17:41.575Z,7.82
2017-11-17T12:18:42.337Z,7.72
2017-11-17T12:19:41.493Z,7.96
2017-11-17T12:20:41.438Z,7.97
2017-11-17T12:21:41.400Z,8.03
2017-11-17T12:22:41.350Z,8.02
2017-11-17T12:23:41.325Z,8.03
2017-11-17T12:24:41.266Z,8.12
2017-11-17T12:25:41.249Z,8.22
2017-11-17T12:26:41.181Z,8.25
2017-11-17T12:27:41.148Z,8.14
2017-11-17T12:28:41.116Z,8.10
2017-11-17T12:29:41.068Z,8.00
2017-11-17T12:30:41.040Z,8.07
2017-11-17T12:31:40.987Z,8.08
2017-11-17T12:32:40.955Z,8.08
2017-11-17T12:33:40.911Z,8.25
2017-11-17T12:34:40.867Z,8.17
2017-11-17T12:35:40.836Z,8.30
2017-11-17T12:36:40.789Z,8.28
2017-11-17T12:37:40.740Z,8.33
2017-11-17T12:38:40.697Z,8.32
2017-11-17T12:39:40.654Z,8.33
2017-11-17T12:40:40.659Z,8.40
2017-11-17T12:41:40.639Z,8.37
2017-11-17T12:42:40.536Z,8.45
2017-11-17T12:43:40.495Z,8.47
2017-11-17T12:44:40.534Z,8.30
2017-11-17T12:45:40.408Z,8.32
2017-11-17T12:46:40.376Z,8.20
2017-11-17T12:47:40.328Z,8.26
2017-11-17T12:48:40.338Z,8.21
2017-11-17T12:49:40.253Z,8.22
2017-11-17T12:50:40.236Z,8.03
2017-11-17T12:51:40.171Z,8.14
2017-11-17T12:52:40.125Z,8.18
2017-11-17T12:53:40.083Z,7.94
2017-11-17T12:54:40.055Z,7.94
2017-11-17T12:55:40.002Z,8.04
2017-11-17T12:56:39.958Z,8.00
2017-11-17T12:57:39.964Z,7.92
2017-11-17T12:58:39.893Z,7.79
2017-11-17T12:59:39.831Z,7.84
2017-11-17T13:00:39.791Z,7.84
2017-11-17T13:01:39.753Z,7.78
2017-11-17T13:02:39.712Z,7.78
2017-11-17T13:03:39.689Z,7.71
2017-11-17T13:04:39.636Z,7.72
2017-11-17T13:05:39.588Z,7.72
2017-11-17T13:06:39.558Z,7.75
2017-11-17T13:07:39.515Z,7.69
2017-11-17T13:08:39.495Z,7.78
2017-11-17T13:09:39.421Z,7.75
2017-11-17T13:10:39.557Z,7.60
2017-11-17T13:11:39.339Z,7.62
2017-11-17T13:12:39.293Z,7.59
2017-11-17T13:13:39.254Z,7.59
2017-11-17T13:14:39.220Z,7.60
2017-11-17T13:15:39.185Z,7.60
2017-11-17T13:16:39.126Z,7.59
2017-11-17T13:17:39.095Z,7.53
2017-11-17T13:18:39.063Z,7.50
2017-11-17T13:19:39.013Z,7.45
2017-11-17T13:20:38.983Z,7.44
2017-11-17T13:21:38.938Z,7.31
2017-11-17T13:22:38.885Z,7.27
2017-11-17T13:23:38.870Z,7.31
2017-11-17T13:24:38.811Z,7.32
2017-11-17T13:25:38.765Z,7.27
2017-11-17T13:26:38.770Z,7.32
2017-11-17T13:27:38.685Z,7.17
2017-11-17T13:28:38.669Z,7.24
2017-11-17T13:29:38.596Z,7.23
2017-11-17T13:30:38.562Z,7.19
2017-11-17T13:31:38.525Z,7.20
2017-11-17T13:32:38.564Z,7.24
2017-11-17T13:33:38.441Z,7.29
2017-11-17T13:34:38.408Z,7.19
2017-11-17T13:35:38.391Z,7.24
2017-11-17T13:36:38.308Z,7.23
2017-11-17T13:37:38.261Z,7.16
2017-11-17T13:38:38.234Z,7.17
2017-11-17T13:39:38.180Z,7.22
2017-11-17T13:40:38.133Z,7.17
2017-11-17T13:41:38.084Z,7.16
2017-11-17T13:42:38.048Z,7.19
2017-11-17T13:43:37.996Z,7.09
2017-11-17T13:44:37.969Z,7.17
2017-11-17T13:45:37.928Z,7.19
2017-11-17T13:46:37.899Z,7.13
2017-11-17T13:47:37.835Z,7.08
2017-11-17T13:48:37.798Z,7.09
2017-11-17T13:49:37.756Z,6.99
2017-11-17T13:50:37.714Z,7.05
2017-11-17T13:51:37.687Z,7.09
2017-11-17T13:52:37.633Z,7.02
2017-11-17T13:53:37.639Z,7.08
2017-11-17T13:54:37.552Z,7.15
2017-11-17T13:55:37.530Z,7.08
2017-11-17T13:56:37.466Z,7.07
2017-11-17T13:57:37.424Z,7.16
2017-11-17T13:58:37.387Z,7.01
2017-11-17T13:59:37.337Z,7.07
2017-11-17T14:00:37.291Z,7.04
2017-11-17T14:01:37.239Z,7.04
2017-11-17T14:02:37.208Z,7.02
2017-11-17T14:03:37.198Z,7.02
2017-11-17T14:04:37.131Z,6.98
2017-11-17T14:05:37.109Z,7.02
2017-11-17T14:06:37.065Z,6.99
2017-11-17T14:07:37.003Z,7.01
2017-11-17T14:08:37.042Z,7.04
2017-11-17T14:09:36.917Z,6.97
2017-11-17T14:10:36.885Z,6.99
2017-11-17T14:11:36.836Z,7.02
2017-11-17T14:12:36.801Z,7.01
2017-11-17T14:13:36.732Z,6.97
2017-11-17T14:14:36.746Z,7.01
2017-11-17T14:15:36.662Z,7.01
2017-11-17T14:16:36.652Z,7.02
2017-11-17T14:17:36.576Z,6.99
2017-11-17T14:18:36.541Z,6.97
2017-11-17T14:19:36.499Z,7.01
2017-11-17T14:20:36.439Z,7.05
2017-11-17T14:21:36.407Z,6.86
2017-11-17T14:22:36.366Z,6.94
2017-11-17T14:23:36.334Z,6.98
2017-11-17T14:24:36.278Z,6.95
2017-11-17T14:25:36.232Z,6.91
2017-11-17T14:26:36.201Z,6.84
2017-11-17T14:27:36.141Z,6.91
2017-11-17T14:28:36.182Z,6.87
2017-11-17T14:29:36.075Z,6.90
2017-11-17T14:30:36.043Z,6.99
2017-11-17T14:31:35.984Z,6.95
2017-11-17T14:32:35.955Z,6.94
2017-11-17T14:33:35.891Z,6.87
2017-11-17T14:34:35.847Z,6.84
2017-11-17T14:35:35.813Z,6.86
2017-11-17T14:36:35.776Z,6.83
2017-11-17T14:37:35.723Z,6.91
2017-11-17T14:38:35.679Z,6.89
2017-11-17T14:39:35.640Z,6.90
2017-11-17T14:40:35.600Z,6.87
2017-11-17T14:41:35.569Z,6.86
2017-11-17T14:42:35.532Z,6.91
2017-11-17T14:43:35.477Z,6.89
2017-11-17T14:44:35.444Z,6.83
2017-11-17T14:45:35.398Z,6.84
2017-11-17T14:46:35.341Z,6.90
2017-11-17T14:47:35.332Z,6.79
2017-11-17T14:48:35.258Z,6.72
2017-11-17T14:49:35.216Z,6.69
2017-11-17T14:50:35.174Z,6.77
2017-11-17T14:51:35.144Z,6.76
2017-11-17T14:52:35.093Z,6.79
2017-11-17T14:53:35.046Z,6.72
2017-11-17T14:54:34.996Z,6.73
2017-11-17T14:55:34.962Z,6.76
2017-11-17T14:56:34.917Z,6.79
2017-11-17T14:57:34.881Z,6.71